sensor_id;sensor_type;location;lat;lon;timestamp;P1;durP1;ratioP1;P2;durP2;ratioP2
79149;SDS011;68563;45.644;13.782;2023-06-14T00:01:43;3.63;;;3.22;;
79149;SDS011;68563;45.644;13.782;2023-06-14T00:04:10;3.47;;;3.00;;
79149;SDS011;68563;45.644;13.782;2023-06-14T00:06:36;4.20;;;3.20;;
79149;SDS011;68563;45.644;13.782;2023-06-14T00:09:01;6.80;;;3.20;;
79149;SDS011;68563;45.644;13.782;2023-06-14T00:11:27;6.57;;;3.13;;
79149;SDS011;68563;45.644;13.782;2023-06-14T00:13:52;3.53;;;2.80;;
79149;SDS011;68563;45.644;13.782;2023-06-14T00:16:18;4.28;;;3.15;;
79149;SDS011;68563;45.644;13.782;2023-06-14T00:18:44;3.58;;;2.90;;
79149;SDS011;68563;45.644;13.782;2023-06-14T00:21:10;5.43;;;3.33;;
79149;SDS011;68563;45.644;13.782;2023-06-14T00:23:37;4.88;;;3.35;;
79149;SDS011;68563;45.644;13.782;2023-06-14T00:26:02;4.95;;;3.05;;
79149;SDS011;68563;45.644;13.782;2023-06-14T00:28:28;3.17;;;2.60;;
79149;SDS011;68563;45.644;13.782;2023-06-14T00:30:53;4.20;;;2.90;;
79149;SDS011;68563;45.644;13.782;2023-06-14T00:33:18;4.70;;;2.88;;
79149;SDS011;68563;45.644;13.782;2023-06-14T00:35:44;3.30;;;3.00;;
79149;SDS011;68563;45.644;13.782;2023-06-14T00:38:09;4.97;;;3.42;;
79149;SDS011;68563;45.644;13.782;2023-06-14T00:40:35;3.95;;;2.92;;
79149;SDS011;68563;45.644;13.782;2023-06-14T00:43:00;4.55;;;2.95;;
79149;SDS011;68563;45.644;13.782;2023-06-14T00:45:26;4.68;;;3.20;;
79149;SDS011;68563;45.644;13.782;2023-06-14T00:47:51;3.85;;;3.25;;
79149;SDS011;68563;45.644;13.782;2023-06-14T00:50:20;3.78;;;2.95;;
79149;SDS011;68563;45.644;13.782;2023-06-14T00:52:47;5.07;;;2.97;;
79149;SDS011;68563;45.644;13.782;2023-06-14T00:55:12;4.35;;;3.30;;
79149;SDS011;68563;45.644;13.782;2023-06-14T00:57:38;5.97;;;3.13;;
79149;SDS011;68563;45.644;13.782;2023-06-14T01:00:05;4.60;;;2.90;;
79149;SDS011;68563;45.644;13.782;2023-06-14T01:02:34;3.80;;;2.95;;
79149;SDS011;68563;45.644;13.782;2023-06-14T01:05:02;5.30;;;2.90;;
79149;SDS011;68563;45.644;13.782;2023-06-14T01:10:32;4.57;;;2.72;;
79149;SDS011;68563;45.644;13.782;2023-06-14T01:15:32;5.10;;;3.20;;
79149;SDS011;68563;45.644;13.782;2023-06-14T01:18:00;3.30;;;2.83;;
79149;SDS011;68563;45.644;13.782;2023-06-14T01:20:36;4.57;;;2.85;;
79149;SDS011;68563;45.644;13.782;2023-06-14T01:23:02;6.88;;;2.92;;
79149;SDS011;68563;45.644;13.782;2023-06-14T01:25:28;6.70;;;3.03;;
79149;SDS011;68563;45.644;13.782;2023-06-14T01:28:00;6.35;;;2.92;;
79149;SDS011;68563;45.644;13.782;2023-06-14T01:30:29;4.97;;;2.85;;
79149;SDS011;68563;45.644;13.782;2023-06-14T01:32:58;5.50;;;3.00;;
79149;SDS011;68563;45.644;13.782;2023-06-14T01:35:24;4.72;;;2.88;;
79149;SDS011;68563;45.644;13.782;2023-06-14T01:37:49;3.30;;;2.92;;
79149;SDS011;68563;45.644;13.782;2023-06-14T01:40:17;3.75;;;2.75;;
79149;SDS011;68563;45.644;13.782;2023-06-14T01:42:44;5.82;;;3.03;;
79149;SDS011;68563;45.644;13.782;2023-06-14T01:45:12;4.05;;;2.90;;
79149;SDS011;68563;45.644;13.782;2023-06-14T01:47:38;5.60;;;3.17;;
79149;SDS011;68563;45.644;13.782;2023-06-14T01:50:05;5.53;;;2.88;;
79149;SDS011;68563;45.644;13.782;2023-06-14T01:52:30;4.65;;;3.05;;
79149;SDS011;68563;45.644;13.782;2023-06-14T01:54:56;5.47;;;2.60;;
79149;SDS011;68563;45.644;13.782;2023-06-14T01:57:23;5.85;;;2.70;;
79149;SDS011;68563;45.644;13.782;2023-06-14T01:59:50;3.60;;;2.65;;
79149;SDS011;68563;45.644;13.782;2023-06-14T02:02:15;7.88;;;2.80;;
79149;SDS011;68563;45.644;13.782;2023-06-14T02:04:41;6.20;;;3.05;;
79149;SDS011;68563;45.644;13.782;2023-06-14T02:07:07;6.57;;;2.85;;
79149;SDS011;68563;45.644;13.782;2023-06-14T02:09:35;7.47;;;3.03;;
79149;SDS011;68563;45.644;13.782;2023-06-14T02:12:01;5.10;;;2.97;;
79149;SDS011;68563;45.644;13.782;2023-06-14T02:14:27;3.88;;;2.80;;
79149;SDS011;68563;45.644;13.782;2023-06-14T02:16:52;6.22;;;3.42;;
79149;SDS011;68563;45.644;13.782;2023-06-14T02:19:18;5.45;;;2.60;;
79149;SDS011;68563;45.644;13.782;2023-06-14T02:21:45;3.58;;;2.83;;
79149;SDS011;68563;45.644;13.782;2023-06-14T02:24:11;3.55;;;3.13;;
79149;SDS011;68563;45.644;13.782;2023-06-14T02:26:37;4.25;;;3.03;;
79149;SDS011;68563;45.644;13.782;2023-06-14T02:29:08;4.50;;;2.90;;
79149;SDS011;68563;45.644;13.782;2023-06-14T02:31:36;4.57;;;2.88;;
79149;SDS011;68563;45.644;13.782;2023-06-14T02:34:01;4.40;;;2.70;;
79149;SDS011;68563;45.644;13.782;2023-06-14T02:36:27;6.90;;;3.00;;
79149;SDS011;68563;45.644;13.782;2023-06-14T02:38:54;4.80;;;2.78;;
79149;SDS011;68563;45.644;13.782;2023-06-14T02:41:22;4.00;;;2.95;;
79149;SDS011;68563;45.644;13.782;2023-06-14T02:43:48;3.58;;;2.70;;
79149;SDS011;68563;45.644;13.782;2023-06-14T02:46:13;4.07;;;3.05;;
79149;SDS011;68563;45.644;13.782;2023-06-14T02:48:39;4.05;;;2.90;;
79149;SDS011;68563;45.644;13.782;2023-06-14T02:51:04;4.72;;;2.95;;
79149;SDS011;68563;45.644;13.782;2023-06-14T02:53:31;3.90;;;2.65;;
79149;SDS011;68563;45.644;13.782;2023-06-14T02:55:57;4.15;;;2.83;;
79149;SDS011;68563;45.644;13.782;2023-06-14T02:58:23;6.03;;;2.90;;
79149;SDS011;68563;45.644;13.782;2023-06-14T03:00:50;3.25;;;2.78;;
79149;SDS011;68563;45.644;13.782;2023-06-14T03:03:17;3.47;;;2.58;;
79149;SDS011;68563;45.644;13.782;2023-06-14T03:05:44;4.47;;;2.60;;
79149;SDS011;68563;45.644;13.782;2023-06-14T03:08:12;6.57;;;2.88;;
79149;SDS011;68563;45.644;13.782;2023-06-14T03:10:48;6.32;;;2.53;;
79149;SDS011;68563;45.644;13.782;2023-06-14T03:13:14;4.13;;;3.10;;
79149;SDS011;68563;45.644;13.782;2023-06-14T03:15:43;3.47;;;2.65;;
79149;SDS011;68563;45.644;13.782;2023-06-14T03:18:10;5.93;;;3.00;;
79149;SDS011;68563;45.644;13.782;2023-06-14T03:20:37;4.18;;;2.70;;
79149;SDS011;68563;45.644;13.782;2023-06-14T03:23:03;3.75;;;2.88;;
79149;SDS011;68563;45.644;13.782;2023-06-14T03:25:30;6.47;;;3.22;;
79149;SDS011;68563;45.644;13.782;2023-06-14T03:27:56;6.10;;;3.03;;
79149;SDS011;68563;45.644;13.782;2023-06-14T03:30:21;5.20;;;2.63;;
79149;SDS011;68563;45.644;13.782;2023-06-14T03:32:47;5.57;;;3.22;;
79149;SDS011;68563;45.644;13.782;2023-06-14T03:35:12;3.55;;;2.95;;
79149;SDS011;68563;45.644;13.782;2023-06-14T03:37:42;4.93;;;2.60;;
79149;SDS011;68563;45.644;13.782;2023-06-14T03:40:09;4.22;;;2.85;;
79149;SDS011;68563;45.644;13.782;2023-06-14T03:42:36;10.80;;;3.05;;
79149;SDS011;68563;45.644;13.782;2023-06-14T03:45:01;4.63;;;3.10;;
79149;SDS011;68563;45.644;13.782;2023-06-14T03:47:27;15.45;;;3.35;;
79149;SDS011;68563;45.644;13.782;2023-06-14T03:49:52;4.95;;;3.33;;
79149;SDS011;68563;45.644;13.782;2023-06-14T03:52:18;5.88;;;2.72;;
79149;SDS011;68563;45.644;13.782;2023-06-14T03:54:43;6.63;;;3.05;;
79149;SDS011;68563;45.644;13.782;2023-06-14T03:57:09;3.47;;;2.50;;
79149;SDS011;68563;45.644;13.782;2023-06-14T03:59:35;6.43;;;3.25;;
79149;SDS011;68563;45.644;13.782;2023-06-14T04:02:01;3.17;;;2.65;;
79149;SDS011;68563;45.644;13.782;2023-06-14T04:04:27;5.18;;;2.92;;
79149;SDS011;68563;45.644;13.782;2023-06-14T04:06:57;4.97;;;3.38;;
79149;SDS011;68563;45.644;13.782;2023-06-14T04:09:24;3.90;;;2.90;;
79149;SDS011;68563;45.644;13.782;2023-06-14T04:11:52;4.03;;;3.10;;
79149;SDS011;68563;45.644;13.782;2023-06-14T04:14:18;4.30;;;2.90;;
79149;SDS011;68563;45.644;13.782;2023-06-14T04:16:45;4.10;;;3.03;;
79149;SDS011;68563;45.644;13.782;2023-06-14T04:19:14;8.40;;;2.75;;
79149;SDS011;68563;45.644;13.782;2023-06-14T04:21:41;3.42;;;2.92;;
79149;SDS011;68563;45.644;13.782;2023-06-14T04:24:06;5.18;;;3.35;;
79149;SDS011;68563;45.644;13.782;2023-06-14T04:26:48;4.63;;;2.75;;
79149;SDS011;68563;45.644;13.782;2023-06-14T04:29:14;4.57;;;2.83;;
79149;SDS011;68563;45.644;13.782;2023-06-14T04:31:41;4.70;;;2.83;;
79149;SDS011;68563;45.644;13.782;2023-06-14T04:34:07;4.57;;;2.75;;
79149;SDS011;68563;45.644;13.782;2023-06-14T04:36:33;5.03;;;3.08;;
79149;SDS011;68563;45.644;13.782;2023-06-14T04:39:06;4.70;;;3.25;;
79149;SDS011;68563;45.644;13.782;2023-06-14T04:41:32;6.53;;;3.35;;
79149;SDS011;68563;45.644;13.782;2023-06-14T04:43:58;7.50;;;3.22;;
79149;SDS011;68563;45.644;13.782;2023-06-14T04:46:26;5.53;;;2.85;;
79149;SDS011;68563;45.644;13.782;2023-06-14T04:48:53;8.25;;;2.88;;
79149;SDS011;68563;45.644;13.782;2023-06-14T04:51:19;3.63;;;2.90;;
79149;SDS011;68563;45.644;13.782;2023-06-14T04:53:47;5.32;;;3.00;;
79149;SDS011;68563;45.644;13.782;2023-06-14T04:56:14;4.15;;;3.22;;
79149;SDS011;68563;45.644;13.782;2023-06-14T04:58:40;6.13;;;2.88;;
79149;SDS011;68563;45.644;13.782;2023-06-14T05:01:05;3.83;;;3.00;;
79149;SDS011;68563;45.644;13.782;2023-06-14T05:03:34;6.15;;;3.20;;
79149;SDS011;68563;45.644;13.782;2023-06-14T05:05:59;4.60;;;2.85;;
79149;SDS011;68563;45.644;13.782;2023-06-14T05:08:25;3.85;;;3.05;;
79149;SDS011;68563;45.644;13.782;2023-06-14T05:10:51;4.30;;;2.90;;
79149;SDS011;68563;45.644;13.782;2023-06-14T05:13:16;4.53;;;3.10;;
79149;SDS011;68563;45.644;13.782;2023-06-14T05:15:42;5.75;;;3.22;;
79149;SDS011;68563;45.644;13.782;2023-06-14T05:18:08;5.18;;;3.63;;
79149;SDS011;68563;45.644;13.782;2023-06-14T05:20:34;4.18;;;3.42;;
79149;SDS011;68563;45.644;13.782;2023-06-14T05:23:02;6.45;;;3.40;;
79149;SDS011;68563;45.644;13.782;2023-06-14T05:25:27;5.63;;;3.20;;
79149;SDS011;68563;45.644;13.782;2023-06-14T05:27:53;6.00;;;3.40;;
79149;SDS011;68563;45.644;13.782;2023-06-14T05:30:18;9.68;;;4.13;;
79149;SDS011;68563;45.644;13.782;2023-06-14T05:32:44;5.00;;;3.33;;
79149;SDS011;68563;45.644;13.782;2023-06-14T05:35:09;9.95;;;3.25;;
79149;SDS011;68563;45.644;13.782;2023-06-14T05:37:35;3.75;;;3.05;;
79149;SDS011;68563;45.644;13.782;2023-06-14T05:40:01;10.07;;;3.30;;
79149;SDS011;68563;45.644;13.782;2023-06-14T05:42:30;4.55;;;2.85;;
79149;SDS011;68563;45.644;13.782;2023-06-14T05:44:55;4.05;;;3.00;;
79149;SDS011;68563;45.644;13.782;2023-06-14T05:47:21;3.83;;;3.10;;
79149;SDS011;68563;45.644;13.782;2023-06-14T05:49:46;5.85;;;3.33;;
79149;SDS011;68563;45.644;13.782;2023-06-14T05:52:11;5.10;;;3.00;;
79149;SDS011;68563;45.644;13.782;2023-06-14T05:54:38;4.35;;;3.13;;
79149;SDS011;68563;45.644;13.782;2023-06-14T05:57:03;4.68;;;2.97;;
79149;SDS011;68563;45.644;13.782;2023-06-14T05:59:31;5.35;;;2.92;;
79149;SDS011;68563;45.644;13.782;2023-06-14T06:01:57;5.78;;;2.72;;
79149;SDS011;68563;45.644;13.782;2023-06-14T06:04:22;4.97;;;2.85;;
79149;SDS011;68563;45.644;13.782;2023-06-14T06:06:48;5.30;;;3.05;;
79149;SDS011;68563;45.644;13.782;2023-06-14T06:09:14;4.93;;;3.28;;
79149;SDS011;68563;45.644;13.782;2023-06-14T06:11:39;5.38;;;2.63;;
79149;SDS011;68563;45.644;13.782;2023-06-14T06:14:05;5.45;;;3.30;;
79149;SDS011;68563;45.644;13.782;2023-06-14T06:16:31;5.32;;;2.92;;
79149;SDS011;68563;45.644;13.782;2023-06-14T06:18:56;3.78;;;2.35;;
79149;SDS011;68563;45.644;13.782;2023-06-14T06:21:21;3.63;;;2.88;;
79149;SDS011;68563;45.644;13.782;2023-06-14T06:23:47;4.32;;;3.00;;
79149;SDS011;68563;45.644;13.782;2023-06-14T06:26:12;6.78;;;3.30;;
79149;SDS011;68563;45.644;13.782;2023-06-14T06:28:38;5.88;;;3.13;;
79149;SDS011;68563;45.644;13.782;2023-06-14T06:31:03;3.35;;;2.72;;
79149;SDS011;68563;45.644;13.782;2023-06-14T06:33:28;3.60;;;2.63;;
79149;SDS011;68563;45.644;13.782;2023-06-14T06:35:54;5.07;;;3.20;;
79149;SDS011;68563;45.644;13.782;2023-06-14T06:38:20;5.57;;;3.08;;
79149;SDS011;68563;45.644;13.782;2023-06-14T06:40:45;5.05;;;2.53;;
79149;SDS011;68563;45.644;13.782;2023-06-14T06:43:11;7.35;;;2.78;;
79149;SDS011;68563;45.644;13.782;2023-06-14T06:45:41;6.95;;;2.85;;
79149;SDS011;68563;45.644;13.782;2023-06-14T06:48:07;3.78;;;2.85;;
79149;SDS011;68563;45.644;13.782;2023-06-14T06:50:35;6.03;;;3.05;;
79149;SDS011;68563;45.644;13.782;2023-06-14T06:53:00;4.32;;;2.72;;
79149;SDS011;68563;45.644;13.782;2023-06-14T06:55:26;4.93;;;2.95;;
79149;SDS011;68563;45.644;13.782;2023-06-14T06:57:51;5.20;;;3.00;;
79149;SDS011;68563;45.644;13.782;2023-06-14T07:00:18;7.93;;;3.38;;
79149;SDS011;68563;45.644;13.782;2023-06-14T07:02:45;6.40;;;2.88;;
79149;SDS011;68563;45.644;13.782;2023-06-14T07:05:10;4.28;;;2.88;;
79149;SDS011;68563;45.644;13.782;2023-06-14T07:07:36;3.75;;;2.80;;
79149;SDS011;68563;45.644;13.782;2023-06-14T07:10:02;5.13;;;2.90;;
79149;SDS011;68563;45.644;13.782;2023-06-14T07:12:30;5.45;;;3.00;;
79149;SDS011;68563;45.644;13.782;2023-06-14T07:14:56;3.63;;;2.80;;
79149;SDS011;68563;45.644;13.782;2023-06-14T07:17:22;4.38;;;3.15;;
79149;SDS011;68563;45.644;13.782;2023-06-14T07:19:47;4.00;;;3.08;;
79149;SDS011;68563;45.644;13.782;2023-06-14T07:22:13;5.32;;;3.13;;
79149;SDS011;68563;45.644;13.782;2023-06-14T07:24:38;5.47;;;3.13;;
79149;SDS011;68563;45.644;13.782;2023-06-14T07:27:05;4.38;;;2.90;;
79149;SDS011;68563;45.644;13.782;2023-06-14T07:29:31;4.47;;;2.92;;
79149;SDS011;68563;45.644;13.782;2023-06-14T07:31:56;3.20;;;2.80;;
79149;SDS011;68563;45.644;13.782;2023-06-14T07:34:22;5.82;;;2.90;;
79149;SDS011;68563;45.644;13.782;2023-06-14T07:36:47;6.30;;;3.08;;
79149;SDS011;68563;45.644;13.782;2023-06-14T07:39:12;4.47;;;3.20;;
79149;SDS011;68563;45.644;13.782;2023-06-14T07:41:38;6.78;;;3.28;;
79149;SDS011;68563;45.644;13.782;2023-06-14T07:44:04;5.68;;;3.00;;
79149;SDS011;68563;45.644;13.782;2023-06-14T07:46:29;6.20;;;2.85;;
79149;SDS011;68563;45.644;13.782;2023-06-14T07:48:55;6.35;;;2.80;;
79149;SDS011;68563;45.644;13.782;2023-06-14T07:51:20;4.30;;;3.15;;
79149;SDS011;68563;45.644;13.782;2023-06-14T07:53:47;5.03;;;3.05;;
79149;SDS011;68563;45.644;13.782;2023-06-14T07:56:13;3.63;;;3.08;;
79149;SDS011;68563;45.644;13.782;2023-06-14T07:58:39;3.63;;;2.50;;
79149;SDS011;68563;45.644;13.782;2023-06-14T08:01:04;3.55;;;2.80;;
79149;SDS011;68563;45.644;13.782;2023-06-14T08:03:31;4.75;;;3.03;;
79149;SDS011;68563;45.644;13.782;2023-06-14T08:05:57;3.50;;;2.80;;
79149;SDS011;68563;45.644;13.782;2023-06-14T08:08:23;7.80;;;3.08;;
79149;SDS011;68563;45.644;13.782;2023-06-14T08:10:48;3.95;;;3.17;;
79149;SDS011;68563;45.644;13.782;2023-06-14T08:13:14;7.88;;;3.20;;
79149;SDS011;68563;45.644;13.782;2023-06-14T08:15:40;9.88;;;3.13;;
79149;SDS011;68563;45.644;13.782;2023-06-14T08:18:05;10.90;;;3.58;;
79149;SDS011;68563;45.644;13.782;2023-06-14T08:20:31;8.13;;;3.33;;
79149;SDS011;68563;45.644;13.782;2023-06-14T08:22:58;8.02;;;3.10;;
79149;SDS011;68563;45.644;13.782;2023-06-14T08:25:23;4.53;;;3.30;;
79149;SDS011;68563;45.644;13.782;2023-06-14T08:27:49;3.72;;;3.13;;
79149;SDS011;68563;45.644;13.782;2023-06-14T08:30:15;3.80;;;3.05;;
79149;SDS011;68563;45.644;13.782;2023-06-14T08:32:42;6.72;;;2.83;;
79149;SDS011;68563;45.644;13.782;2023-06-14T08:35:08;7.53;;;2.78;;
79149;SDS011;68563;45.644;13.782;2023-06-14T08:37:37;3.30;;;2.80;;
79149;SDS011;68563;45.644;13.782;2023-06-14T08:40:04;5.40;;;3.25;;
79149;SDS011;68563;45.644;13.782;2023-06-14T08:42:40;3.22;;;2.90;;
79149;SDS011;68563;45.644;13.782;2023-06-14T08:45:07;4.05;;;3.30;;
79149;SDS011;68563;45.644;13.782;2023-06-14T08:47:33;3.78;;;3.03;;
79149;SDS011;68563;45.644;13.782;2023-06-14T08:50:01;6.22;;;3.33;;
79149;SDS011;68563;45.644;13.782;2023-06-14T08:52:29;6.25;;;3.10;;
79149;SDS011;68563;45.644;13.782;2023-06-14T08:54:59;3.63;;;2.90;;
79149;SDS011;68563;45.644;13.782;2023-06-14T08:57:25;4.95;;;3.20;;
79149;SDS011;68563;45.644;13.782;2023-06-14T08:59:55;4.45;;;3.08;;
79149;SDS011;68563;45.644;13.782;2023-06-14T09:02:22;6.10;;;2.53;;
79149;SDS011;68563;45.644;13.782;2023-06-14T09:04:47;4.18;;;2.83;;
79149;SDS011;68563;45.644;13.782;2023-06-14T09:07:14;5.70;;;3.17;;
79149;SDS011;68563;45.644;13.782;2023-06-14T09:09:41;5.85;;;3.17;;
79149;SDS011;68563;45.644;13.782;2023-06-14T09:12:10;7.05;;;3.42;;
79149;SDS011;68563;45.644;13.782;2023-06-14T09:14:37;5.15;;;3.25;;
79149;SDS011;68563;45.644;13.782;2023-06-14T09:17:05;4.70;;;3.38;;
79149;SDS011;68563;45.644;13.782;2023-06-14T09:19:31;8.38;;;3.72;;
79149;SDS011;68563;45.644;13.782;2023-06-14T09:21:56;4.53;;;3.10;;
79149;SDS011;68563;45.644;13.782;2023-06-14T09:24:23;5.72;;;3.42;;
79149;SDS011;68563;45.644;13.782;2023-06-14T09:26:50;6.32;;;3.50;;
79149;SDS011;68563;45.644;13.782;2023-06-14T09:29:16;7.95;;;3.95;;
79149;SDS011;68563;45.644;13.782;2023-06-14T09:31:45;6.03;;;4.20;;
79149;SDS011;68563;45.644;13.782;2023-06-14T09:34:11;5.88;;;3.70;;
79149;SDS011;68563;45.644;13.782;2023-06-14T09:36:37;5.18;;;3.33;;
79149;SDS011;68563;45.644;13.782;2023-06-14T09:39:04;10.60;;;3.47;;
79149;SDS011;68563;45.644;13.782;2023-06-14T09:41:35;6.30;;;3.60;;
79149;SDS011;68563;45.644;13.782;2023-06-14T09:44:02;5.55;;;3.65;;
79149;SDS011;68563;45.644;13.782;2023-06-14T09:46:32;9.90;;;3.80;;
79149;SDS011;68563;45.644;13.782;2023-06-14T09:48:59;4.50;;;3.45;;
79149;SDS011;68563;45.644;13.782;2023-06-14T09:51:26;4.70;;;3.42;;
79149;SDS011;68563;45.644;13.782;2023-06-14T09:53:52;4.00;;;3.20;;
79149;SDS011;68563;45.644;13.782;2023-06-14T09:56:26;6.10;;;3.47;;
79149;SDS011;68563;45.644;13.782;2023-06-14T09:58:55;3.33;;;3.00;;
79149;SDS011;68563;45.644;13.782;2023-06-14T10:01:25;4.88;;;3.33;;
79149;SDS011;68563;45.644;13.782;2023-06-14T10:04:03;4.22;;;3.33;;
79149;SDS011;68563;45.644;13.782;2023-06-14T10:06:30;4.50;;;3.00;;
79149;SDS011;68563;45.644;13.782;2023-06-14T10:08:57;8.38;;;4.00;;
79149;SDS011;68563;45.644;13.782;2023-06-14T10:11:27;5.65;;;3.53;;
79149;SDS011;68563;45.644;13.782;2023-06-14T10:13:53;7.60;;;3.50;;
79149;SDS011;68563;45.644;13.782;2023-06-14T10:25:03;3.65;;;3.10;;
79149;SDS011;68563;45.644;13.782;2023-06-14T10:27:33;5.38;;;3.78;;
79149;SDS011;68563;45.644;13.782;2023-06-14T10:32:24;6.47;;;3.55;;
79149;SDS011;68563;45.644;13.782;2023-06-14T10:34:57;9.65;;;3.80;;
79149;SDS011;68563;45.644;13.782;2023-06-14T10:37:24;7.25;;;3.78;;
79149;SDS011;68563;45.644;13.782;2023-06-14T10:39:50;4.65;;;3.50;;
79149;SDS011;68563;45.644;13.782;2023-06-14T10:42:16;4.63;;;3.50;;
79149;SDS011;68563;45.644;13.782;2023-06-14T10:49:49;4.72;;;3.47;;
79149;SDS011;68563;45.644;13.782;2023-06-14T10:52:19;4.72;;;3.78;;
79149;SDS011;68563;45.644;13.782;2023-06-14T10:55:00;5.25;;;3.45;;
79149;SDS011;68563;45.644;13.782;2023-06-14T10:57:40;5.13;;;3.80;;
79149;SDS011;68563;45.644;13.782;2023-06-14T11:00:08;4.53;;;3.60;;
79149;SDS011;68563;45.644;13.782;2023-06-14T11:05:28;4.63;;;3.63;;
79149;SDS011;68563;45.644;13.782;2023-06-14T11:10:44;6.50;;;3.97;;
79149;SDS011;68563;45.644;13.782;2023-06-14T11:13:13;8.18;;;4.30;;
79149;SDS011;68563;45.644;13.782;2023-06-14T11:15:44;7.15;;;4.40;;
79149;SDS011;68563;45.644;13.782;2023-06-14T11:18:11;4.95;;;4.00;;
79149;SDS011;68563;45.644;13.782;2023-06-14T11:20:37;6.13;;;4.15;;
79149;SDS011;68563;45.644;13.782;2023-06-14T11:23:03;6.30;;;5.00;;
79149;SDS011;68563;45.644;13.782;2023-06-14T11:25:29;11.73;;;5.30;;
79149;SDS011;68563;45.644;13.782;2023-06-14T11:27:55;6.03;;;4.43;;
79149;SDS011;68563;45.644;13.782;2023-06-14T11:30:21;8.40;;;3.95;;
79149;SDS011;68563;45.644;13.782;2023-06-14T11:32:47;5.68;;;3.25;;
79149;SDS011;68563;45.644;13.782;2023-06-14T11:35:14;4.65;;;3.20;;
79149;SDS011;68563;45.644;13.782;2023-06-14T11:37:40;4.22;;;3.33;;
79149;SDS011;68563;45.644;13.782;2023-06-14T11:40:07;5.05;;;3.15;;
79149;SDS011;68563;45.644;13.782;2023-06-14T11:42:35;3.70;;;2.67;;
79149;SDS011;68563;45.644;13.782;2023-06-14T11:45:01;4.57;;;2.90;;
79149;SDS011;68563;45.644;13.782;2023-06-14T11:47:40;3.65;;;3.33;;
79149;SDS011;68563;45.644;13.782;2023-06-14T11:50:06;3.40;;;3.00;;
79149;SDS011;68563;45.644;13.782;2023-06-14T11:52:36;4.15;;;3.10;;
79149;SDS011;68563;45.644;13.782;2023-06-14T11:55:03;4.20;;;2.90;;
79149;SDS011;68563;45.644;13.782;2023-06-14T11:57:30;4.75;;;3.10;;
79149;SDS011;68563;45.644;13.782;2023-06-14T11:59:58;4.85;;;2.95;;
79149;SDS011;68563;45.644;13.782;2023-06-14T12:02:24;3.45;;;2.83;;
79149;SDS011;68563;45.644;13.782;2023-06-14T12:04:50;8.40;;;2.70;;
79149;SDS011;68563;45.644;13.782;2023-06-14T12:07:16;6.20;;;3.30;;
79149;SDS011;68563;45.644;13.782;2023-06-14T12:12:23;5.13;;;2.90;;
79149;SDS011;68563;45.644;13.782;2023-06-14T12:14:53;3.88;;;3.05;;
79149;SDS011;68563;45.644;13.782;2023-06-14T12:17:21;4.97;;;3.20;;
79149;SDS011;68563;45.644;13.782;2023-06-14T12:19:48;3.40;;;3.00;;
79149;SDS011;68563;45.644;13.782;2023-06-14T12:22:14;3.55;;;3.08;;
79149;SDS011;68563;45.644;13.782;2023-06-14T12:24:42;3.38;;;3.08;;
79149;SDS011;68563;45.644;13.782;2023-06-14T12:27:08;5.95;;;3.80;;
79149;SDS011;68563;45.644;13.782;2023-06-14T12:29:35;4.78;;;3.75;;
79149;SDS011;68563;45.644;13.782;2023-06-14T12:32:01;5.13;;;3.80;;
79149;SDS011;68563;45.644;13.782;2023-06-14T12:34:26;3.88;;;3.45;;
79149;SDS011;68563;45.644;13.782;2023-06-14T12:36:52;6.43;;;3.72;;
79149;SDS011;68563;45.644;13.782;2023-06-14T12:39:19;10.23;;;3.95;;
79149;SDS011;68563;45.644;13.782;2023-06-14T12:41:44;4.70;;;3.60;;
79149;SDS011;68563;45.644;13.782;2023-06-14T12:44:10;5.20;;;2.92;;
79149;SDS011;68563;45.644;13.782;2023-06-14T12:46:36;3.55;;;3.25;;
79149;SDS011;68563;45.644;13.782;2023-06-14T12:49:04;5.45;;;3.60;;
79149;SDS011;68563;45.644;13.782;2023-06-14T12:51:30;5.38;;;3.50;;
79149;SDS011;68563;45.644;13.782;2023-06-14T12:53:55;4.88;;;3.40;;
79149;SDS011;68563;45.644;13.782;2023-06-14T12:56:21;4.47;;;3.55;;
79149;SDS011;68563;45.644;13.782;2023-06-14T12:58:46;4.82;;;3.50;;
79149;SDS011;68563;45.644;13.782;2023-06-14T13:01:12;4.72;;;3.47;;
79149;SDS011;68563;45.644;13.782;2023-06-14T13:03:37;5.20;;;4.05;;
79149;SDS011;68563;45.644;13.782;2023-06-14T13:06:02;6.07;;;3.25;;
79149;SDS011;68563;45.644;13.782;2023-06-14T13:08:29;5.10;;;3.70;;
79149;SDS011;68563;45.644;13.782;2023-06-14T13:10:55;5.72;;;3.50;;
79149;SDS011;68563;45.644;13.782;2023-06-14T13:13:20;4.55;;;3.80;;
79149;SDS011;68563;45.644;13.782;2023-06-14T13:15:46;6.50;;;3.83;;
79149;SDS011;68563;45.644;13.782;2023-06-14T13:18:12;6.70;;;4.05;;
79149;SDS011;68563;45.644;13.782;2023-06-14T13:20:38;4.28;;;3.80;;
79149;SDS011;68563;45.644;13.782;2023-06-14T13:23:04;6.07;;;3.67;;
79149;SDS011;68563;45.644;13.782;2023-06-14T13:25:32;6.53;;;3.70;;
79149;SDS011;68563;45.644;13.782;2023-06-14T13:30:27;4.95;;;3.80;;
79149;SDS011;68563;45.644;13.782;2023-06-14T13:32:53;5.72;;;3.95;;
79149;SDS011;68563;45.644;13.782;2023-06-14T13:35:18;7.45;;;4.18;;
79149;SDS011;68563;45.644;13.782;2023-06-14T13:37:44;6.72;;;3.67;;
79149;SDS011;68563;45.644;13.782;2023-06-14T13:40:10;5.05;;;3.60;;
79149;SDS011;68563;45.644;13.782;2023-06-14T13:42:36;8.00;;;4.10;;
79149;SDS011;68563;45.644;13.782;2023-06-14T13:45:02;7.45;;;4.45;;
79149;SDS011;68563;45.644;13.782;2023-06-14T13:47:28;8.93;;;4.00;;
79149;SDS011;68563;45.644;13.782;2023-06-14T13:49:56;4.82;;;4.05;;
79149;SDS011;68563;45.644;13.782;2023-06-14T13:52:21;7.18;;;4.40;;
79149;SDS011;68563;45.644;13.782;2023-06-14T13:54:47;8.15;;;3.92;;
79149;SDS011;68563;45.644;13.782;2023-06-14T13:57:12;5.72;;;4.00;;
79149;SDS011;68563;45.644;13.782;2023-06-14T13:59:38;5.32;;;3.53;;
79149;SDS011;68563;45.644;13.782;2023-06-14T14:02:04;7.55;;;3.53;;
79149;SDS011;68563;45.644;13.782;2023-06-14T14:04:30;5.95;;;3.80;;
79149;SDS011;68563;45.644;13.782;2023-06-14T14:06:56;6.40;;;4.25;;
79149;SDS011;68563;45.644;13.782;2023-06-14T14:09:21;6.93;;;3.72;;
79149;SDS011;68563;45.644;13.782;2023-06-14T14:11:47;5.22;;;3.83;;
79149;SDS011;68563;45.644;13.782;2023-06-14T14:14:13;4.75;;;3.58;;
79149;SDS011;68563;45.644;13.782;2023-06-14T14:16:39;5.75;;;3.95;;
79149;SDS011;68563;45.644;13.782;2023-06-14T14:19:06;7.93;;;4.00;;
79149;SDS011;68563;45.644;13.782;2023-06-14T14:21:32;4.68;;;3.90;;
79149;SDS011;68563;45.644;13.782;2023-06-14T14:23:58;6.72;;;3.78;;
79149;SDS011;68563;45.644;13.782;2023-06-14T14:26:24;8.48;;;4.35;;
79149;SDS011;68563;45.644;13.782;2023-06-14T14:28:50;8.25;;;4.05;;
79149;SDS011;68563;45.644;13.782;2023-06-14T14:31:16;6.43;;;4.13;;
79149;SDS011;68563;45.644;13.782;2023-06-14T14:33:42;7.65;;;4.38;;
79149;SDS011;68563;45.644;13.782;2023-06-14T14:36:07;4.97;;;4.22;;
79149;SDS011;68563;45.644;13.782;2023-06-14T14:38:33;4.55;;;3.67;;
79149;SDS011;68563;45.644;13.782;2023-06-14T14:40:59;4.32;;;3.75;;
79149;SDS011;68563;45.644;13.782;2023-06-14T14:43:24;7.72;;;4.10;;
79149;SDS011;68563;45.644;13.782;2023-06-14T14:45:50;5.72;;;4.13;;
79149;SDS011;68563;45.644;13.782;2023-06-14T14:48:18;6.20;;;4.30;;
79149;SDS011;68563;45.644;13.782;2023-06-14T14:50:44;6.95;;;4.03;;
79149;SDS011;68563;45.644;13.782;2023-06-14T14:53:09;5.97;;;4.10;;
79149;SDS011;68563;45.644;13.782;2023-06-14T14:55:35;8.27;;;4.13;;
79149;SDS011;68563;45.644;13.782;2023-06-14T14:58:02;5.40;;;3.90;;
79149;SDS011;68563;45.644;13.782;2023-06-14T15:00:28;5.70;;;3.80;;
79149;SDS011;68563;45.644;13.782;2023-06-14T15:02:54;4.90;;;3.83;;